createdAt,value
2018-09-25T00:00:14.800Z,7.47
2018-09-25T00:02:49.579Z,7.40
2018-09-25T00:05:24.344Z,7.40
2018-09-25T00:07:59.091Z,7.40
2018-09-25T00:10:33.960Z,7.35
2018-09-25T00:13:08.690Z,7.37
2018-09-25T00:15:43.507Z,7.37
2018-09-25T00:18:18.327Z,7.27
2018-09-25T00:20:53.160Z,7.28
2018-09-25T00:23:27.881Z,7.31
2018-09-25T00:26:02.691Z,7.25
2018-09-25T00:28:37.365Z,7.20
2018-09-25T00:31:12.148Z,7.19
2018-09-25T00:33:46.993Z,7.21
2018-09-25T00:36:21.660Z,7.26
2018-09-25T00:38:56.425Z,7.26
2018-09-25T00:41:31.243Z,7.33
2018-09-25T00:44:06.032Z,7.33
2018-09-25T00:46:40.908Z,7.32
2018-09-25T00:49:15.572Z,7.33
2018-09-25T00:51:50.236Z,7.29
2018-09-25T00:54:25.016Z,7.25
2018-09-25T00:56:59.896Z,7.24
2018-09-25T00:59:34.704Z,7.18
2018-09-25T01:02:09.517Z,7.19
2018-09-25T01:04:44.245Z,7.16
2018-09-25T01:07:19.054Z,7.20
2018-09-25T01:09:53.972Z,7.20
2018-09-25T01:12:28.715Z,7.12
2018-09-25T01:15:03.480Z,7.04
2018-09-25T01:17:38.247Z,6.94
2018-09-25T01:20:13.085Z,6.91
2018-09-25T01:22:47.709Z,6.90
2018-09-25T01:25:22.475Z,6.93
2018-09-25T01:27:57.235Z,6.94
2018-09-25T01:30:32.001Z,7.00
2018-09-25T01:33:06.824Z,6.90
2018-09-25T01:35:41.482Z,6.87
2018-09-25T01:38:16.128Z,6.85
2018-09-25T01:40:50.920Z,6.86
2018-09-25T01:43:25.613Z,6.88
2018-09-25T01:46:00.397Z,6.91
2018-09-25T01:48:35.193Z,6.93
2018-09-25T01:51:10.036Z,6.76
2018-09-25T01:53:44.795Z,6.53
2018-09-25T01:56:19.708Z,6.40
2018-09-25T01:58:54.411Z,6.49
2018-09-25T02:01:29.164Z,6.52
2018-09-25T02:04:03.916Z,6.47
2018-09-25T02:06:38.675Z,6.56
2018-09-25T02:09:13.584Z,6.69
2018-09-25T02:11:48.267Z,6.65
2018-09-25T02:14:23.072Z,6.63
2018-09-25T02:16:57.700Z,6.62
2018-09-25T02:19:32.829Z,6.61
2018-09-25T02:22:07.484Z,6.62
2018-09-25T02:24:42.312Z,6.65
2018-09-25T02:27:17.140Z,6.55
2018-09-25T02:29:51.988Z,6.53
2018-09-25T02:32:26.727Z,6.61
2018-09-25T02:35:01.567Z,6.57
2018-09-25T02:37:36.283Z,6.65
2018-09-25T02:40:11.138Z,6.58
2018-09-25T02:42:45.936Z,6.60
2018-09-25T02:45:20.693Z,6.62
2018-09-25T02:47:55.443Z,6.64
2018-09-25T02:50:30.168Z,6.61
2018-09-25T02:53:04.908Z,6.64
2018-09-25T02:55:39.682Z,6.63
2018-09-25T02:58:14.437Z,6.63
2018-09-25T03:00:49.224Z,6.63
2018-09-25T03:03:23.964Z,6.68
2018-09-25T03:05:58.636Z,6.63
2018-09-25T03:08:33.444Z,6.56
2018-09-25T03:11:08.217Z,6.39
2018-09-25T03:13:42.904Z,6.33
2018-09-25T03:16:17.692Z,6.36
2018-09-25T03:18:52.428Z,6.33
2018-09-25T03:21:27.231Z,6.38
2018-09-25T03:24:02.008Z,6.34
2018-09-25T03:26:36.689Z,6.43
2018-09-25T03:29:11.680Z,6.39
2018-09-25T03:31:46.392Z,6.41
2018-09-25T03:34:21.106Z,6.39
2018-09-25T03:36:55.912Z,6.37
2018-09-25T03:39:30.665Z,6.31
2018-09-25T03:42:05.731Z,6.31
2018-09-25T03:44:40.890Z,6.21
2018-09-25T03:47:15.736Z,6.18
2018-09-25T03:49:50.480Z,6.25
2018-09-25T03:52:25.172Z,6.28
2018-09-25T03:54:59.931Z,6.18
2018-09-25T03:57:34.684Z,6.14
2018-09-25T04:00:09.492Z,6.19
2018-09-25T04:02:44.263Z,6.18
2018-09-25T04:05:19.052Z,6.16
2018-09-25T04:07:53.794Z,6.20
2018-09-25T04:10:28.582Z,6.23
2018-09-25T04:13:03.388Z,6.28
2018-09-25T04:15:38.289Z,6.22
2018-09-25T04:18:13.084Z,6.28
2018-09-25T04:20:47.864Z,6.32
2018-09-25T04:23:22.752Z,6.30
2018-09-25T04:25:57.600Z,6.36
2018-09-25T04:28:32.418Z,6.42
2018-09-25T04:31:07.184Z,6.43
2018-09-25T04:33:41.988Z,6.50
2018-09-25T04:36:16.784Z,6.50
2018-09-25T04:38:51.392Z,6.50
2018-09-25T04:41:26.284Z,6.53
2018-09-25T04:44:01.073Z,6.49
2018-09-25T04:46:35.832Z,6.47
2018-09-25T04:49:10.756Z,6.54
2018-09-25T04:51:45.567Z,6.56
2018-09-25T04:54:20.407Z,6.59
2018-09-25T04:56:55.196Z,6.62
2018-09-25T04:59:30.048Z,6.58
2018-09-25T05:02:04.855Z,6.55
2018-09-25T05:04:39.591Z,6.55
2018-09-25T05:07:14.408Z,6.52
2018-09-25T05:09:49.180Z,6.37
2018-09-25T05:12:24.270Z,6.35
2018-09-25T05:14:59.045Z,6.30
2018-09-25T05:17:33.761Z,6.30
2018-09-25T05:20:08.628Z,6.25
2018-09-25T05:22:43.350Z,6.16
2018-09-25T05:25:18.122Z,6.19
2018-09-25T05:27:52.920Z,6.20
2018-09-25T05:30:27.708Z,6.07
2018-09-25T05:33:02.355Z,6.13
2018-09-25T05:35:37.152Z,6.18
2018-09-25T05:38:11.940Z,6.19
2018-09-25T05:40:46.683Z,6.15
2018-09-25T05:43:21.603Z,6.13
2018-09-25T05:45:56.567Z,6.23
2018-09-25T05:48:31.383Z,6.17
2018-09-25T05:51:06.121Z,6.17
2018-09-25T05:53:40.835Z,6.20
2018-09-25T05:56:15.628Z,6.34
2018-09-25T05:58:50.421Z,6.35
2018-09-25T06:01:25.312Z,6.49
2018-09-25T06:04:00.184Z,6.58
2018-09-25T06:06:35.191Z,6.77
2018-09-25T06:09:11.450Z,6.83
2018-09-25T06:11:46.273Z,7.01
2018-09-25T06:14:21.165Z,7.26
2018-09-25T06:16:56.025Z,7.39
2018-09-25T06:19:30.701Z,7.45
2018-09-25T06:22:05.513Z,7.59
2018-09-25T06:24:40.262Z,7.65
2018-09-25T06:27:15.047Z,7.66
2018-09-25T06:29:49.816Z,7.76
2018-09-25T06:32:24.531Z,7.74
2018-09-25T06:34:59.502Z,7.76
2018-09-25T06:37:34.768Z,7.76
2018-09-25T06:40:09.688Z,7.87
2018-09-25T06:42:44.471Z,7.88
2018-09-25T06:45:19.277Z,7.89
2018-09-25T06:47:54.060Z,7.92
2018-09-25T06:50:29.171Z,7.94
2018-09-25T06:53:04.014Z,8.01
2018-09-25T06:55:38.728Z,8.27
2018-09-25T06:58:13.468Z,8.51
2018-09-25T07:00:48.211Z,8.52
2018-09-25T07:03:23.024Z,8.59
2018-09-25T07:05:57.857Z,8.57
2018-09-25T07:08:32.680Z,8.51
2018-09-25T07:11:07.424Z,8.56
2018-09-25T07:13:42.065Z,8.75
2018-09-25T07:16:16.809Z,8.88
2018-09-25T07:18:51.620Z,8.95
2018-09-25T07:21:26.480Z,8.91
2018-09-25T07:24:01.234Z,8.91
2018-09-25T07:26:36.088Z,8.97
2018-09-25T07:29:10.945Z,8.99
2018-09-25T07:31:45.748Z,9.21
2018-09-25T07:34:20.599Z,9.32
2018-09-25T07:36:55.286Z,9.37
2018-09-25T07:39:30.112Z,9.51
2018-09-25T07:42:04.918Z,9.58
2018-09-25T07:44:40.076Z,9.60
2018-09-25T07:47:14.952Z,9.59
2018-09-25T07:49:49.784Z,9.71
2018-09-25T07:52:24.467Z,9.74
2018-09-25T07:54:59.236Z,9.91
2018-09-25T07:57:34.064Z,9.93
2018-09-25T08:00:08.864Z,9.71
2018-09-25T08:02:43.596Z,9.83
2018-09-25T08:05:18.387Z,10.03
2018-09-25T08:07:53.175Z,10.05
2018-09-25T08:10:28.043Z,10.07
2018-09-25T08:13:02.988Z,10.35
2018-09-25T08:15:37.858Z,10.22
2018-09-25T08:18:12.411Z,10.43
2018-09-25T08:20:47.173Z,10.44
2018-09-25T08:23:21.976Z,10.60
2018-09-25T08:25:56.721Z,10.91
2018-09-25T08:28:31.535Z,11.10
2018-09-25T08:31:06.414Z,11.26
2018-09-25T08:33:41.084Z,11.43
2018-09-25T08:36:15.916Z,11.59
2018-09-25T08:38:50.837Z,11.68
2018-09-25T08:41:25.655Z,11.80
2018-09-25T08:44:00.497Z,11.69
2018-09-25T08:46:35.390Z,11.75
2018-09-25T08:49:10.212Z,11.92
2018-09-25T08:51:45.064Z,12.04
2018-09-25T08:54:19.792Z,12.18
2018-09-25T08:56:54.524Z,12.41
2018-09-25T08:59:29.323Z,12.63
2018-09-25T09:02:04.179Z,12.70
2018-09-25T09:04:39.008Z,12.79
2018-09-25T09:07:13.731Z,12.79
2018-09-25T09:09:48.568Z,12.97
2018-09-25T09:12:23.397Z,12.99
2018-09-25T09:14:58.180Z,12.95
2018-09-25T09:17:32.948Z,12.98
2018-09-25T09:20:07.876Z,13.27
2018-09-25T09:22:42.432Z,13.32
2018-09-25T09:25:17.314Z,13.39
2018-09-25T09:27:52.092Z,13.45
2018-09-25T09:30:27.006Z,13.49
2018-09-25T09:33:01.850Z,13.45
2018-09-25T09:35:36.668Z,13.62
2018-09-25T09:38:11.400Z,13.67
2018-09-25T09:40:46.172Z,13.92
2018-09-25T09:43:20.993Z,14.04
2018-09-25T09:45:55.808Z,14.24
2018-09-25T09:48:30.612Z,14.14
2018-09-25T09:51:05.441Z,14.24
2018-09-25T09:53:40.220Z,14.36
2018-09-25T09:56:14.924Z,14.16
2018-09-25T09:58:49.614Z,13.84
2018-09-25T10:01:24.262Z,13.68
2018-09-25T10:03:59.008Z,13.47
2018-09-25T10:06:33.777Z,13.30
2018-09-25T10:09:08.723Z,13.11
2018-09-25T10:11:43.517Z,13.13
2018-09-25T10:14:18.220Z,13.58
2018-09-25T10:16:53.224Z,14.04
2018-09-25T10:19:28.024Z,14.52
2018-09-25T10:22:02.936Z,14.51
2018-09-25T10:24:37.709Z,14.24
2018-09-25T10:27:12.578Z,14.19
2018-09-25T10:29:47.388Z,13.98
2018-09-25T10:32:22.124Z,13.92
2018-09-25T10:34:57.041Z,13.87
2018-09-25T10:37:31.926Z,13.87
2018-09-25T10:40:06.932Z,13.77
2018-09-25T10:42:41.743Z,13.74
2018-09-25T10:45:16.572Z,13.60
2018-09-25T10:47:51.383Z,13.67
2018-09-25T10:50:26.228Z,13.61
2018-09-25T10:53:01.117Z,13.54
2018-09-25T10:55:35.852Z,13.60
2018-09-25T10:58:10.733Z,13.60
2018-09-25T11:00:45.692Z,13.58
2018-09-25T11:03:20.551Z,13.61
2018-09-25T11:05:55.393Z,13.67
2018-09-25T11:08:30.205Z,13.67
2018-09-25T11:11:04.860Z,13.68
2018-09-25T11:13:39.713Z,14.06
2018-09-25T11:16:14.512Z,14.55
2018-09-25T11:18:49.352Z,15.01
2018-09-25T11:21:24.123Z,15.18
2018-09-25T11:23:58.781Z,15.57
2018-09-25T11:26:33.599Z,15.80
2018-09-25T11:29:08.384Z,16.10
2018-09-25T11:31:43.156Z,16.35
2018-09-25T11:34:17.910Z,16.71
2018-09-25T11:36:52.641Z,16.83
2018-09-25T11:39:27.316Z,16.90
2018-09-25T11:42:02.072Z,16.80
2018-09-25T11:44:36.800Z,16.68
2018-09-25T11:47:11.488Z,16.09
2018-09-25T11:49:46.344Z,16.21
2018-09-25T11:52:21.136Z,16.19
2018-09-25T11:54:55.938Z,16.33
2018-09-25T11:57:30.782Z,16.61
2018-09-25T12:00:05.591Z,16.95
2018-09-25T12:02:40.344Z,17.05
2018-09-25T12:05:15.280Z,17.15
2018-09-25T12:07:50.121Z,17.21
2018-09-25T12:10:24.836Z,17.30
2018-09-25T12:12:59.640Z,16.91
2018-09-25T12:15:34.323Z,16.96
2018-09-25T12:18:09.153Z,17.33
2018-09-25T12:20:43.944Z,17.85
2018-09-25T12:23:18.858Z,18.16
2018-09-25T12:25:53.668Z,18.08
2018-09-25T12:28:28.556Z,18.15
2018-09-25T12:31:03.283Z,18.32
2018-09-25T12:33:38.148Z,18.32
2018-09-25T12:36:13.149Z,18.05
2018-09-25T12:38:47.961Z,17.41
2018-09-25T12:41:22.889Z,17.13
2018-09-25T12:43:57.758Z,16.81
2018-09-25T12:46:32.644Z,16.61
2018-09-25T12:49:07.461Z,16.49
2018-09-25T12:51:42.351Z,16.35
2018-09-25T12:54:17.279Z,16.32
2018-09-25T12:56:52.056Z,16.41
2018-09-25T12:59:26.899Z,16.69
2018-09-25T13:02:01.812Z,17.20
2018-09-25T13:04:36.665Z,17.54
2018-09-25T13:07:11.476Z,17.38
2018-09-25T13:09:46.316Z,17.38
2018-09-25T13:12:21.434Z,17.65
2018-09-25T13:14:56.201Z,17.91
2018-09-25T13:17:31.004Z,18.42
2018-09-25T13:20:05.838Z,18.62
2018-09-25T13:22:40.691Z,19.04
2018-09-25T13:25:15.323Z,19.08
2018-09-25T13:27:50.263Z,19.18
2018-09-25T13:30:24.923Z,18.63
2018-09-25T13:32:59.738Z,18.20
2018-09-25T13:35:34.527Z,18.28
2018-09-25T13:38:09.372Z,18.48
2018-09-25T13:40:44.192Z,18.17
2018-09-25T13:43:18.916Z,17.77
2018-09-25T13:45:53.782Z,17.37
2018-09-25T13:48:28.566Z,17.18
2018-09-25T13:51:03.508Z,16.74
2018-09-25T13:53:38.280Z,16.55
2018-09-25T13:56:13.203Z,16.44
2018-09-25T13:58:47.983Z,16.99
2018-09-25T14:01:22.817Z,17.54
2018-09-25T14:03:57.570Z,17.98
2018-09-25T14:06:32.379Z,17.93
2018-09-25T14:09:07.179Z,18.10
2018-09-25T14:11:42.056Z,18.34
2018-09-25T14:14:16.857Z,18.23
2018-09-25T14:16:51.656Z,18.20
2018-09-25T14:19:26.367Z,18.15
2018-09-25T14:22:01.241Z,18.13
2018-09-25T14:24:36.251Z,18.24
2018-09-25T14:27:11.065Z,18.15
2018-09-25T14:29:46.004Z,18.14
2018-09-25T14:32:20.784Z,18.24
2018-09-25T14:34:55.719Z,18.21
2018-09-25T14:37:30.593Z,18.07
2018-09-25T14:40:05.396Z,17.85
2018-09-25T14:42:40.156Z,17.62
2018-09-25T14:45:15.014Z,17.58
2018-09-25T14:47:49.915Z,17.41
2018-09-25T14:50:24.733Z,17.18
2018-09-25T14:52:59.692Z,16.99
2018-09-25T14:55:34.498Z,16.66
2018-09-25T14:58:09.330Z,16.73
2018-09-25T15:00:44.037Z,16.46
2018-09-25T15:03:18.861Z,16.49
2018-09-25T15:05:53.663Z,16.29
2018-09-25T15:08:28.466Z,16.00
2018-09-25T15:11:03.340Z,15.92
2018-09-25T15:13:38.044Z,15.96
2018-09-25T15:16:13.134Z,15.93
2018-09-25T15:18:47.932Z,15.86
2018-09-25T15:21:22.663Z,15.82
2018-09-25T15:23:57.492Z,15.82
2018-09-25T15:26:32.293Z,15.67
2018-09-25T15:29:06.944Z,15.66
2018-09-25T15:31:41.732Z,15.66
2018-09-25T15:34:16.503Z,15.67
2018-09-25T15:36:51.300Z,15.68
2018-09-25T15:39:26.139Z,15.68
2018-09-25T15:42:00.961Z,15.57
2018-09-25T15:44:35.749Z,15.56
2018-09-25T15:47:10.584Z,15.58
2018-09-25T15:49:45.428Z,15.52
2018-09-25T15:52:20.219Z,15.51
2018-09-25T15:54:55.132Z,15.29
2018-09-25T15:57:30.017Z,15.31
2018-09-25T16:00:04.844Z,15.25
2018-09-25T16:02:39.669Z,15.31
2018-09-25T16:05:14.576Z,15.18
2018-09-25T16:07:49.365Z,15.11
2018-09-25T16:10:23.984Z,15.03
2018-09-25T16:20:09.676Z,14.77
2018-09-25T16:22:44.380Z,14.74
2018-09-25T16:25:19.321Z,14.69
2018-09-25T16:27:54.160Z,14.70
2018-09-25T16:30:29.048Z,14.62
2018-09-25T16:33:03.692Z,14.53
2018-09-25T16:35:38.646Z,14.44
2018-09-25T16:38:13.444Z,14.30
2018-09-25T16:40:48.405Z,14.25
2018-09-25T16:43:23.180Z,14.08
2018-09-25T16:45:57.988Z,14.21
2018-09-25T16:48:32.808Z,13.93
2018-09-25T16:51:07.632Z,13.88
2018-09-25T16:53:42.472Z,13.70
2018-09-25T16:56:17.339Z,13.38
2018-09-25T16:58:52.191Z,13.26
2018-09-25T17:01:26.820Z,13.36
2018-09-25T17:04:01.585Z,13.50
2018-09-25T17:06:36.400Z,13.53
2018-09-25T17:09:12.730Z,13.49
2018-09-25T17:11:47.644Z,13.41
2018-09-25T17:14:22.477Z,13.34
2018-09-25T17:16:57.300Z,13.25
2018-09-25T17:19:32.112Z,13.18
2018-09-25T17:22:06.895Z,13.04
2018-09-25T17:24:41.624Z,12.94
2018-09-25T17:27:16.476Z,12.90
2018-09-25T17:29:51.176Z,12.81
2018-09-25T17:32:25.940Z,12.47
2018-09-25T17:35:00.839Z,12.44
2018-09-25T17:37:35.861Z,12.35
2018-09-25T17:40:10.784Z,12.49
2018-09-25T17:42:45.632Z,12.31
2018-09-25T17:45:20.480Z,12.35
2018-09-25T17:47:55.160Z,12.34
2018-09-25T17:50:29.804Z,12.06
2018-09-25T17:53:04.648Z,11.88
2018-09-25T17:55:39.595Z,11.94
2018-09-25T17:58:14.461Z,11.98
2018-09-25T18:00:49.206Z,12.03
2018-09-25T18:03:23.867Z,12.08
2018-09-25T18:05:58.656Z,12.13
2018-09-25T18:08:33.584Z,12.03
2018-09-25T18:11:08.469Z,12.01
2018-09-25T18:13:43.249Z,11.77
2018-09-25T18:16:17.880Z,11.94
2018-09-25T18:18:52.641Z,11.91
2018-09-25T18:21:27.309Z,11.93
2018-09-25T18:24:02.172Z,11.91
2018-09-25T18:26:36.917Z,11.73
2018-09-25T18:29:11.776Z,11.60
2018-09-25T18:31:46.650Z,11.66
2018-09-25T18:34:21.428Z,11.64
2018-09-25T18:36:56.057Z,11.59
2018-09-25T18:39:31.036Z,11.53
2018-09-25T18:42:05.937Z,11.44
2018-09-25T18:44:40.736Z,11.43
2018-09-25T18:47:15.496Z,11.30
2018-09-25T18:49:50.310Z,11.28
2018-09-25T18:52:25.196Z,11.23
2018-09-25T18:54:59.994Z,11.20
2018-09-25T18:57:34.854Z,11.12
2018-09-25T19:00:09.857Z,11.02
2018-09-25T19:02:44.666Z,11.06
2018-09-25T19:05:19.533Z,11.01
2018-09-25T19:07:54.410Z,10.94
2018-09-25T19:10:29.169Z,10.88
2018-09-25T19:13:03.947Z,10.68
2018-09-25T19:15:38.848Z,10.69
2018-09-25T19:18:13.712Z,10.69
2018-09-25T19:20:48.652Z,10.71
2018-09-25T19:23:23.475Z,10.71
2018-09-25T19:25:58.525Z,10.64
2018-09-25T19:28:33.428Z,10.58
2018-09-25T19:31:08.160Z,10.42
2018-09-25T19:33:42.932Z,10.54
2018-09-25T19:36:17.756Z,10.60
2018-09-25T19:38:52.657Z,10.63
2018-09-25T19:41:27.560Z,10.63
2018-09-25T19:44:02.384Z,10.60
2018-09-25T19:46:37.200Z,10.60
2018-09-25T19:49:11.980Z,10.62
2018-09-25T19:51:46.788Z,10.53
2018-09-25T19:54:21.944Z,10.44
2018-09-25T19:56:56.640Z,10.26
2018-09-25T19:59:31.465Z,10.06
2018-09-25T20:02:06.159Z,10.17
2018-09-25T20:04:41.032Z,10.15
2018-09-25T20:07:15.909Z,10.20
2018-09-25T20:09:50.806Z,10.19
2018-09-25T20:12:25.560Z,10.22
2018-09-25T20:15:00.400Z,10.25
2018-09-25T20:17:35.166Z,10.28
2018-09-25T20:20:10.180Z,10.24
2018-09-25T20:22:45.033Z,10.21
2018-09-25T20:25:19.912Z,10.20
2018-09-25T20:27:54.712Z,10.19
2018-09-25T20:30:29.428Z,10.14
2018-09-25T20:33:04.174Z,10.10
2018-09-25T20:35:38.904Z,10.00
2018-09-25T20:38:13.696Z,9.96
2018-09-25T20:40:48.416Z,9.92
2018-09-25T20:43:23.223Z,9.95
2018-09-25T20:45:57.980Z,9.88
2018-09-25T20:48:32.792Z,9.88
2018-09-25T20:51:07.457Z,9.76
2018-09-25T20:53:42.220Z,9.69
2018-09-25T20:56:16.993Z,9.73
2018-09-25T20:58:51.804Z,9.66
2018-09-25T21:01:26.704Z,9.60
2018-09-25T21:04:01.728Z,9.66
2018-09-25T21:06:36.508Z,9.61
2018-09-25T21:09:13.971Z,9.55
2018-09-25T21:11:48.841Z,9.53
2018-09-25T21:14:23.664Z,9.50
2018-09-25T21:16:58.292Z,9.53
2018-09-25T21:19:33.048Z,9.38
2018-09-25T21:22:07.885Z,9.40
2018-09-25T21:24:42.632Z,9.37
2018-09-25T21:27:17.446Z,9.35
2018-09-25T21:29:52.200Z,9.29
2018-09-25T21:32:27.108Z,9.37
2018-09-25T21:35:01.857Z,9.36
2018-09-25T21:37:36.783Z,9.35
2018-09-25T21:40:11.706Z,9.36
2018-09-25T21:42:46.717Z,9.39
2018-09-25T21:45:21.433Z,9.37
2018-09-25T21:47:56.265Z,9.38
2018-09-25T21:50:31.079Z,9.35
2018-09-25T21:53:05.932Z,9.40
2018-09-25T21:55:40.560Z,9.42
2018-09-25T21:58:15.360Z,9.40
2018-09-25T22:00:50.173Z,9.37
2018-09-25T22:03:24.925Z,9.38
2018-09-25T22:05:59.848Z,9.36
2018-09-25T22:08:34.728Z,9.27
2018-09-25T22:11:09.605Z,9.34
2018-09-25T22:13:44.388Z,9.41
2018-09-25T22:16:19.167Z,9.43
2018-09-25T22:18:53.837Z,9.42
2018-09-25T22:21:28.580Z,9.41
2018-09-25T22:24:03.404Z,9.45
2018-09-25T22:26:38.040Z,9.49
2018-09-25T22:29:12.908Z,9.52
2018-09-25T22:31:47.813Z,9.45
2018-09-25T22:34:22.623Z,9.48
2018-09-25T22:36:57.406Z,9.45
2018-09-25T22:39:32.423Z,9.43
2018-09-25T22:42:07.280Z,9.38
2018-09-25T22:44:42.087Z,9.37
2018-09-25T22:47:17.002Z,9.33
2018-09-25T22:49:51.772Z,9.28
2018-09-25T22:52:26.595Z,9.25
2018-09-25T22:55:01.613Z,9.23
2018-09-25T22:57:36.600Z,9.22
2018-09-25T23:00:11.532Z,9.26
2018-09-25T23:02:46.317Z,9.26
2018-09-25T23:05:21.156Z,9.25
2018-09-25T23:07:55.976Z,9.14
2018-09-25T23:10:30.864Z,9.14
2018-09-25T23:13:05.752Z,9.07
2018-09-25T23:15:40.513Z,9.02
2018-09-25T23:18:15.160Z,8.99
2018-09-25T23:20:49.969Z,8.95
2018-09-25T23:23:24.692Z,8.94
2018-09-25T23:25:59.603Z,8.92
2018-09-25T23:28:34.352Z,9.02
2018-09-25T23:31:09.182Z,9.02
2018-09-25T23:33:43.956Z,8.95
2018-09-25T23:36:18.821Z,8.87
2018-09-25T23:38:53.636Z,8.79
2018-09-25T23:41:28.296Z,8.86
2018-09-25T23:44:03.097Z,8.85
2018-09-25T23:46:39.667Z,8.79
2018-09-25T23:49:14.323Z,8.77
2018-09-25T23:52:47.111Z,8.67
2018-09-25T23:57:26.116Z,8.58
